Time;durP1;ratioP1;P1;durP2;ratioP2;P2;SDS_P1;SDS_P2;PMS_P1;PMS_P2;Temp;Humidity;BMP_temperature;BMP_pressure;BME280_temperature;BME280_humidity;BME280_pressure;Samples;Min_cycle;Max_cycle;Signal;HPM_P1;HPM_P2
2023/07/10 00:02:13;;;;;;;7.10;3.00;;;;;;;14.87;66.87;100968.53;103661;280;38285;-72
2023/07/10 00:04:47;;;;;;;4.60;3.10;;;;;;;14.87;66.99;100966.05;103705;280;39250;-72
2023/07/10 00:07:21;;;;;;;4.40;3.10;;;;;;;14.86;67.28;100965.93;103650;280;38351;-72
2023/07/10 00:09:55;;;;;;;4.80;3.20;;;;;;;14.84;67.46;100965.67;103739;280;38675;-72
2023/07/10 00:12:29;;;;;;;3.60;2.90;;;;;;;14.84;67.50;100969.89;103730;279;38539;-72
2023/07/10 00:15:05;;;;;;;4.50;3.70;;;;;;;14.84;67.71;100963.23;103734;279;39603;-73
2023/07/10 00:17:39;;;;;;;5.40;3.30;;;;;;;14.81;67.83;100961.58;103754;280;39427;-74
2023/07/10 00:20:18;;;;;;;4.70;3.00;;;;;;;14.79;68.00;100963.46;103783;280;38365;-72
2023/07/10 00:22:52;;;;;;;6.40;3.20;;;;;;;14.77;68.10;100961.61;103841;279;38506;-72
2023/07/10 00:25:27;;;;;;;8.70;3.30;;;;;;;14.75;68.25;100961.33;103775;279;39403;-72
2023/07/10 00:28:01;;;;;;;4.80;3.40;;;;;;;14.75;68.53;100957.48;103725;280;39898;-73
2023/07/10 00:30:35;;;;;;;4.40;3.20;;;;;;;14.71;68.65;100951.54;103633;280;39323;-74
2023/07/10 00:33:13;;;;;;;5.20;3.10;;;;;;;14.69;68.61;100952.45;103557;280;38353;-73
2023/07/10 00:35:47;;;;;;;4.20;3.40;;;;;;;14.69;68.88;100954.80;103552;280;189060;-73
2023/07/10 00:38:29;;;;;;;4.80;3.30;;;;;;;14.68;69.07;100952.91;103683;280;38512;-74
2023/07/10 00:41:03;;;;;;;4.50;3.70;;;;;;;14.64;69.12;100944.98;103708;280;38874;-75
2023/07/10 00:43:41;;;;;;;3.60;3.30;;;;;;;14.61;69.07;100946.00;103641;280;38404;-75
2023/07/10 00:46:17;;;;;;;5.80;3.70;;;;;;;14.57;69.26;100951.63;103704;280;39399;-72
2023/07/10 00:48:53;;;;;;;3.70;3.00;;;;;;;14.52;69.54;100953.80;103701;279;39578;-72
2023/07/10 00:51:35;;;;;;;5.50;3.20;;;;;;;14.50;69.62;100953.02;103716;280;39668;-72
2023/07/10 00:54:10;;;;;;;3.90;3.40;;;;;;;14.46;69.70;100950.34;103596;280;39102;-72
2023/07/10 00:56:45;;;;;;;5.20;3.50;;;;;;;14.41;69.76;100946.34;103698;280;38879;-72
2023/07/10 00:59:25;;;;;;;4.00;3.40;;;;;;;14.36;70.16;100949.91;103736;280;38041;-73
2023/07/10 01:02:25;;;;;;;4.20;3.50;;;;;;;14.31;70.52;100948.22;103781;280;38887;-73
2023/07/10 01:05:03;;;;;;;5.90;3.40;;;;;;;14.25;70.81;100943.39;103761;280;39462;-72
2023/07/10 01:07:54;;;;;;;3.20;2.90;;;;;;;14.23;70.84;100948.03;103728;280;38525;-73
2023/07/10 01:10:29;;;;;;;3.20;2.70;;;;;;;14.20;70.95;100946.39;103755;280;38497;-74
2023/07/10 01:13:05;;;;;;;4.40;3.60;;;;;;;14.18;71.15;100945.27;103739;280;39433;-74
2023/07/10 01:15:39;;;;;;;5.90;3.40;;;;;;;14.14;71.49;100948.06;103741;280;38428;-74
2023/07/10 01:18:14;;;;;;;10.60;3.30;;;;;;;14.11;71.57;100951.19;103699;280;38533;-74
2023/07/10 01:20:51;;;;;;;4.10;3.20;;;;;;;14.11;71.85;100952.42;103686;280;38553;-74
2023/07/10 01:23:25;;;;;;;5.10;4.10;;;;;;;14.11;71.82;100954.34;103536;280;39507;-74
2023/07/10 01:26:01;;;;;;;8.90;3.60;;;;;;;14.08;71.96;100953.05;103716;280;38255;-74
2023/07/10 01:28:35;;;;;;;3.70;3.40;;;;;;;14.06;71.96;100951.92;103672;280;39693;-74
2023/07/10 01:31:12;;;;;;;5.20;3.60;;;;;;;14.06;72.29;100953.50;103673;280;39501;-72
2023/07/10 01:33:47;;;;;;;5.60;3.60;;;;;;;14.08;72.46;100956.59;103731;280;38972;-72
2023/07/10 01:36:23;;;;;;;6.70;3.60;;;;;;;14.07;72.60;100956.26;103693;280;39279;-72
2023/07/10 01:39:05;;;;;;;6.40;3.20;;;;;;;14.08;72.49;100949.91;103662;280;38384;-73
2023/07/10 01:41:40;;;;;;;4.70;3.50;;;;;;;14.05;72.65;100951.45;103704;280;39467;-72
2023/07/10 01:44:22;;;;;;;3.90;3.40;;;;;;;14.03;72.82;100954.00;103694;280;38259;-74
2023/07/10 01:46:57;;;;;;;5.10;3.00;;;;;;;13.99;72.88;100956.82;103742;280;38271;-74
2023/07/10 01:49:33;;;;;;;5.70;4.10;;;;;;;13.95;73.10;100961.87;103708;280;39565;-72
2023/07/10 01:52:11;;;;;;;6.50;4.20;;;;;;;13.94;72.96;100959.14;103726;280;39836;-73
2023/07/10 01:54:45;;;;;;;5.30;3.80;;;;;;;13.89;73.28;100958.62;103809;280;38532;-73
2023/07/10 01:57:23;;;;;;;4.80;3.10;;;;;;;13.84;73.34;100957.77;103695;280;39812;-73
2023/07/10 01:59:57;;;;;;;6.80;3.30;;;;;;;13.83;73.66;100955.17;103796;280;39438;-75
2023/07/10 02:02:33;;;;;;;3.70;3.30;;;;;;;13.82;73.76;100952.79;103683;280;38307;-75
2023/07/10 02:05:10;;;;;;;4.40;3.50;;;;;;;13.78;73.85;100944.01;103726;280;38457;-73
2023/07/10 02:07:45;;;;;;;3.40;3.10;;;;;;;13.74;74.13;100939.61;103740;268;39348;-73
2023/07/10 02:10:19;;;;;;;4.90;3.20;;;;;;;13.71;74.33;100933.43;103659;280;38537;-72
2023/07/10 02:12:56;;;;;;;5.40;3.00;;;;;;;13.68;74.55;100928.80;103703;280;38343;-72
2023/07/10 02:15:29;;;;;;;5.50;3.50;;;;;;;13.66;74.77;100923.98;103723;280;38959;-72
2023/07/10 02:18:03;;;;;;;5.50;3.20;;;;;;;13.66;74.80;100920.66;103636;280;38676;-73
2023/07/10 02:20:39;;;;;;;3.50;3.20;;;;;;;13.63;74.81;100915.20;103685;280;39293;-73
2023/07/10 02:23:12;;;;;;;6.20;3.10;;;;;;;13.60;74.83;100913.36;103695;280;38700;-72
2023/07/10 02:25:48;;;;;;;4.20;3.40;;;;;;;13.58;75.09;100916.28;103677;280;38646;-71
2023/07/10 02:28:21;;;;;;;6.70;3.50;;;;;;;13.57;75.22;100920.00;103662;280;38720;-73
2023/07/10 02:30:56;;;;;;;4.80;4.00;;;;;;;13.55;75.41;100926.20;103726;280;38263;-73
2023/07/10 02:33:33;;;;;;;6.00;3.40;;;;;;;13.55;75.62;100925.88;103651;280;38291;-74
2023/07/10 02:36:07;;;;;;;6.00;3.60;;;;;;;13.55;75.78;100928.49;103775;280;38477;-73
2023/07/10 02:38:43;;;;;;;4.80;3.60;;;;;;;13.55;75.87;100924.64;103579;280;38363;-74
2023/07/10 02:41:17;;;;;;;6.10;3.30;;;;;;;13.56;75.89;100925.13;103792;280;38819;-72
2023/07/10 02:43:51;;;;;;;3.60;3.10;;;;;;;13.56;75.84;100927.20;103696;280;38520;-74
2023/07/10 02:46:25;;;;;;;4.20;3.80;;;;;;;13.58;75.90;100928.00;103726;280;38634;-75
2023/07/10 02:49:00;;;;;;;4.20;3.30;;;;;;;13.55;75.74;100931.27;103705;280;38275;-72
2023/07/10 02:51:34;;;;;;;5.40;3.30;;;;;;;13.54;75.98;100933.80;103595;280;39051;-72
2023/07/10 02:54:13;;;;;;;4.30;3.40;;;;;;;13.53;75.91;100935.58;103771;280;39006;-74
2023/07/10 02:56:48;;;;;;;3.70;3.20;;;;;;;13.52;75.91;100933.18;103722;280;39465;-73
2023/07/10 02:59:22;;;;;;;5.20;3.10;;;;;;;13.51;75.90;100932.52;103742;280;38261;-74
2023/07/10 03:01:56;;;;;;;4.00;3.70;;;;;;;13.49;76.10;100931.71;103721;280;38553;-72
2023/07/10 03:04:30;;;;;;;3.60;3.10;;;;;;;13.50;76.09;100937.48;103744;280;38272;-74
2023/07/10 03:07:05;;;;;;;5.30;3.30;;;;;;;13.53;76.40;100938.73;103669;280;40455;-75
2023/07/10 03:09:39;;;;;;;4.80;3.50;;;;;;;13.55;76.60;100939.02;103688;280;38416;-73
2023/07/10 03:12:14;;;;;;;5.60;3.50;;;;;;;13.58;76.66;100940.10;103648;280;39951;-72
2023/07/10 03:14:49;;;;;;;6.30;3.90;;;;;;;13.59;76.85;100944.27;103716;280;39111;-74
2023/07/10 03:17:23;;;;;;;5.60;3.50;;;;;;;13.62;77.09;100945.73;103702;280;38313;-75
2023/07/10 03:19:57;;;;;;;3.50;3.20;;;;;;;13.65;77.11;100947.89;103105;280;902944;-73
2023/07/10 03:22:32;;;;;;;5.70;3.70;;;;;;;13.72;77.25;100945.66;103720;280;38558;-72
2023/07/10 03:25:09;;;;;;;4.20;3.80;;;;;;;13.79;77.39;100945.17;103719;279;38807;-75
2023/07/10 03:27:43;;;;;;;5.10;3.90;;;;;;;13.87;77.37;100945.90;103501;280;38377;-74
2023/07/10 03:30:18;;;;;;;6.60;4.30;;;;;;;13.97;77.05;100946.71;103736;280;39647;-74
2023/07/10 03:32:51;;;;;;;7.30;4.90;;;;;;;14.10;76.87;100946.48;103739;280;38401;-74
2023/07/10 03:35:25;;;;;;;5.90;4.70;;;;;;;14.26;76.53;100941.75;103784;280;38437;-74
2023/07/10 03:37:59;;;;;;;6.30;4.40;;;;;;;14.35;76.23;100944.33;103719;280;38251;-73
2023/07/10 03:40:34;;;;;;;6.10;4.40;;;;;;;14.45;75.88;100946.69;103604;280;38488;-74
2023/07/10 03:43:08;;;;;;;8.00;4.10;;;;;;;14.84;76.00;100949.16;103740;280;39574;-75
2023/07/10 03:45:43;;;;;;;6.70;4.60;;;;;;;15.68;75.92;100937.01;103713;280;39375;-74
2023/07/10 03:48:18;;;;;;;5.50;4.20;;;;;;;16.66;74.82;100933.00;103710;280;38320;-74
2023/07/10 03:50:52;;;;;;;7.40;4.00;;;;;;;17.57;73.51;100930.84;103501;280;38299;-73
2023/07/10 03:53:27;;;;;;;6.50;4.20;;;;;;;18.48;71.88;100931.96;103556;280;39480;-72
2023/07/10 03:56:02;;;;;;;7.10;4.20;;;;;;;19.41;69.51;100926.94;103695;280;39256;-75
2023/07/10 03:58:39;;;;;;;4.30;3.70;;;;;;;20.25;66.80;100922.11;103654;280;38321;-75
2023/07/10 04:01:16;;;;;;;4.50;3.80;;;;;;;21.07;64.02;100923.52;103587;280;38365;-73
2023/07/10 04:03:51;;;;;;;5.60;3.40;;;;;;;21.88;61.89;100927.83;103691;280;39924;-73
2023/07/10 04:06:25;;;;;;;4.40;3.90;;;;;;;22.66;58.91;100937.60;103541;280;174247;-71
2023/07/10 04:09:02;;;;;;;7.60;4.30;;;;;;;23.41;56.28;100937.33;103678;280;39421;-73
2023/07/10 04:11:36;;;;;;;5.40;4.10;;;;;;;24.18;54.28;100940.30;103710;280;39428;-75
2023/07/10 04:14:10;;;;;;;6.70;4.20;;;;;;;24.84;51.37;100941.55;103745;280;38258;-73
2023/07/10 04:16:44;;;;;;;5.20;4.10;;;;;;;25.55;49.27;100942.44;103766;279;38426;-72
2023/07/10 04:19:19;;;;;;;5.70;4.40;;;;;;;26.32;47.17;100944.32;103711;279;39417;-73
2023/07/10 04:21:53;;;;;;;4.40;3.80;;;;;;;26.93;45.30;100940.19;103651;280;174409;-73
2023/07/10 04:24:28;;;;;;;4.00;3.60;;;;;;;27.54;43.92;100933.79;103684;279;38426;-71
2023/07/10 04:27:02;;;;;;;4.60;3.50;;;;;;;27.76;42.13;100934.86;103689;280;38500;-71
2023/07/10 04:29:36;;;;;;;5.70;4.20;;;;;;;27.37;41.72;100935.00;103703;279;38628;-73
2023/07/10 04:32:12;;;;;;;5.80;4.00;;;;;;;26.67;42.09;100932.61;103680;280;38693;-73
2023/07/10 04:34:47;;;;;;;5.70;3.80;;;;;;;25.91;42.88;100933.92;103718;280;38883;-73
2023/07/10 04:37:21;;;;;;;7.40;4.10;;;;;;;25.31;43.47;100934.41;103543;280;174477;-73
2023/07/10 04:39:55;;;;;;;16.00;5.30;;;;;;;24.80;44.34;100935.95;103591;280;174481;-73
2023/07/10 04:42:29;;;;;;;15.10;5.80;;;;;;;24.37;44.97;100942.21;103653;280;38228;-74
2023/07/10 04:45:04;;;;;;;44.40;7.90;;;;;;;24.03;46.19;100945.50;103731;280;38545;-74
2023/07/10 04:47:38;;;;;;;42.80;6.90;;;;;;;23.78;46.52;100951.54;103660;280;38238;-74
2023/07/10 04:50:15;;;;;;;33.10;7.00;;;;;;;23.70;47.59;100957.80;103731;280;39862;-74
2023/07/10 04:52:49;;;;;;;11.20;4.80;;;;;;;23.61;47.64;100959.36;102930;280;894166;-75
2023/07/10 04:55:23;;;;;;;4.70;3.80;;;;;;;23.65;48.00;100957.46;103752;280;38250;-72
2023/07/10 04:57:58;;;;;;;4.90;3.30;;;;;;;23.69;48.51;100950.89;103697;280;39921;-72
2023/07/10 05:00:34;;;;;;;4.70;3.70;;;;;;;23.80;48.95;100947.48;103700;280;38551;-72
2023/07/10 05:03:09;;;;;;;3.90;3.50;;;;;;;23.84;47.53;100950.49;103688;280;38604;-71
2023/07/10 05:05:48;;;;;;;4.60;3.50;;;;;;;24.06;47.96;100956.87;103709;280;38411;-74
2023/07/10 05:08:24;;;;;;;4.60;2.90;;;;;;;25.03;47.56;100955.17;103645;299;38497;-74
2023/07/10 05:10:58;;;;;;;4.90;3.10;;;;;;;26.13;45.44;100956.31;103728;280;38242;-72
2023/07/10 05:13:33;;;;;;;3.90;3.20;;;;;;;27.26;42.84;100959.38;103691;280;38272;-72
2023/07/10 05:16:08;;;;;;;4.60;4.10;;;;;;;27.96;40.75;100954.90;103718;280;38402;-74
2023/07/10 05:18:45;;;;;;;7.00;4.10;;;;;;;27.70;39.17;100959.52;103349;280;487043;-73
2023/07/10 05:21:20;;;;;;;6.00;3.90;;;;;;;27.20;39.31;100957.06;103690;280;38280;-73
2023/07/10 05:23:54;;;;;;;5.10;3.60;;;;;;;26.71;40.03;100961.40;103719;280;38589;-72
2023/07/10 05:26:28;;;;;;;4.50;3.40;;;;;;;26.31;40.39;100961.95;103682;280;38523;-71
2023/07/10 05:29:03;;;;;;;6.00;3.60;;;;;;;25.99;40.91;100958.72;103677;280;38315;-73
2023/07/10 05:31:37;;;;;;;4.60;3.60;;;;;;;25.89;41.98;100956.62;103657;280;38420;-72
2023/07/10 05:34:15;;;;;;;5.50;3.80;;;;;;;26.35;42.17;100951.91;103693;280;38294;-75
2023/07/10 05:36:49;;;;;;;5.40;3.90;;;;;;;26.84;41.07;100949.86;103665;280;38503;-75
2023/07/10 05:39:25;;;;;;;5.30;3.90;;;;;;;26.99;39.43;100951.79;103714;280;38508;-74
2023/07/10 05:42:00;;;;;;;4.40;3.40;;;;;;;26.85;39.38;100944.46;103704;280;39681;-74
2023/07/10 05:44:34;;;;;;;5.30;3.40;;;;;;;26.92;39.82;100945.39;103726;280;39440;-74
2023/07/10 05:47:09;;;;;;;3.80;3.40;;;;;;;27.47;39.88;100940.08;103722;280;38355;-74
2023/07/10 05:49:43;;;;;;;6.10;3.00;;;;;;;27.60;38.47;100940.25;103717;280;39398;-72
2023/07/10 05:52:17;;;;;;;3.80;3.30;;;;;;;27.72;38.32;100935.04;103667;280;38553;-71
2023/07/10 05:54:53;;;;;;;3.50;2.90;;;;;;;27.85;37.51;100940.02;103732;280;39474;-73
2023/07/10 05:57:27;;;;;;;4.10;2.80;;;;;;;28.04;37.03;100935.73;103697;280;38663;-73
2023/07/10 06:00:01;;;;;;;3.70;2.80;;;;;;;28.07;36.88;100937.80;103713;280;38572;-73
2023/07/10 06:02:35;;;;;;;4.30;3.10;;;;;;;28.28;36.61;100936.67;103721;279;38516;-74
2023/07/10 06:05:12;;;;;;;4.20;2.80;;;;;;;28.68;36.67;100937.50;103725;280;39981;-72
2023/07/10 06:07:47;;;;;;;3.80;2.90;;;;;;;29.40;35.41;100935.34;103682;280;38489;-72
2023/07/10 06:10:21;;;;;;;3.70;2.80;;;;;;;29.60;34.54;100938.23;103687;280;38782;-72
2023/07/10 06:12:55;;;;;;;6.10;2.90;;;;;;;29.10;34.76;100931.59;103570;280;38496;-73
2023/07/10 06:15:29;;;;;;;2.60;2.30;;;;;;;29.29;35.43;100931.03;103710;280;38820;-72
2023/07/10 06:18:05;;;;;;;2.90;2.60;;;;;;;30.16;35.37;100934.96;103665;280;39767;-72
2023/07/10 06:20:39;;;;;;;3.80;2.00;;;;;;;31.05;34.04;100932.73;103735;280;38873;-75
2023/07/10 06:23:13;;;;;;;2.90;2.10;;;;;;;31.39;32.90;100932.02;103664;280;38815;-73
2023/07/10 06:25:47;;;;;;;3.60;2.30;;;;;;;31.90;31.56;100932.61;103731;280;39047;-74
2023/07/10 06:28:21;;;;;;;6.40;2.40;;;;;;;32.51;30.64;100932.00;103632;280;38417;-73
2023/07/10 06:31:00;;;;;;;2.50;2.10;;;;;;;32.50;30.20;100936.58;103698;280;40527;-73
2023/07/10 06:33:34;;;;;;;3.00;2.20;;;;;;;32.03;30.58;100933.20;103675;280;38274;-75
2023/07/10 06:36:11;;;;;;;3.80;2.00;;;;;;;31.64;30.98;100936.86;103695;280;38382;-72
2023/07/10 06:38:46;;;;;;;5.70;2.10;;;;;;;31.53;31.69;100935.98;103736;280;38260;-73
2023/07/10 06:41:21;;;;;;;4.70;2.00;;;;;;;31.60;31.68;100938.64;103699;280;38270;-75
2023/07/10 06:43:56;;;;;;;3.20;1.70;;;;;;;31.98;31.06;100933.86;103745;280;38325;-73
2023/07/10 06:46:30;;;;;;;3.20;2.00;;;;;;;32.06;30.61;100929.92;103752;280;38515;-72
2023/07/10 06:49:05;;;;;;;2.50;1.90;;;;;;;32.20;30.69;100932.26;103567;280;39022;-73
2023/07/10 06:51:40;;;;;;;5.20;2.00;;;;;;;32.34;30.12;100922.94;103663;279;39493;-73
2023/07/10 06:54:14;;;;;;;3.80;2.20;;;;;;;32.18;29.78;100925.77;103558;280;38240;-73
2023/07/10 06:56:51;;;;;;;4.90;2.60;;;;;;;32.09;29.85;100923.64;103606;280;173705;-71
2023/07/10 06:59:26;;;;;;;2.50;2.00;;;;;;;32.51;29.95;100922.54;103724;280;38346;-73
2023/07/10 07:02:01;;;;;;;2.30;1.90;;;;;;;33.30;29.37;100913.52;103648;280;38224;-71
2023/07/10 07:04:38;;;;;;;3.30;1.80;;;;;;;33.97;27.58;100914.04;103777;280;38252;-72
2023/07/10 07:07:14;;;;;;;2.90;1.70;;;;;;;34.41;26.27;100911.30;103697;280;38221;-73
2023/07/10 07:09:49;;;;;;;2.40;1.50;;;;;;;34.65;26.02;100910.15;103719;280;38932;-74
2023/07/10 07:12:23;;;;;;;3.00;1.60;;;;;;;34.98;25.64;100909.40;103732;280;38846;-73
2023/07/10 07:14:58;;;;;;;2.80;2.00;;;;;;;35.24;24.64;100899.96;103598;280;38228;-74
2023/07/10 07:17:32;;;;;;;2.40;1.80;;;;;;;35.50;24.52;100896.57;103693;280;38350;-72
2023/07/10 07:20:08;;;;;;;2.80;1.90;;;;;;;35.81;24.20;100892.16;103742;280;38729;-72
2023/07/10 07:22:43;;;;;;;2.10;1.70;;;;;;;36.19;24.55;100891.77;103699;280;39832;-72
2023/07/10 07:25:18;;;;;;;4.00;1.90;;;;;;;36.69;23.94;100889.17;103581;280;187296;-73
2023/07/10 07:27:52;;;;;;;2.50;1.80;;;;;;;36.74;23.12;100888.22;103668;280;38355;-73
2023/07/10 07:30:26;;;;;;;2.90;1.70;;;;;;;36.93;23.44;100890.95;103644;280;38300;-72
2023/07/10 07:33:00;;;;;;;2.90;1.60;;;;;;;37.29;22.90;100883.99;103711;280;39683;-72
2023/07/10 07:35:37;;;;;;;2.90;1.70;;;;;;;37.55;22.82;100885.36;103725;280;38330;-74
2023/07/10 07:38:11;;;;;;;2.10;1.60;;;;;;;38.00;22.37;100881.64;103695;280;38258;-74
2023/07/10 07:40:45;;;;;;;2.00;1.60;;;;;;;38.38;22.38;100880.09;103751;280;38931;-72
2023/07/10 07:43:20;;;;;;;2.20;1.60;;;;;;;38.76;21.29;100882.02;103651;279;39433;-73
2023/07/10 07:45:59;;;;;;;3.30;1.70;;;;;;;38.62;20.84;100877.35;103569;280;38829;-74
2023/07/10 07:48:34;;;;;;;2.40;1.50;;;;;;;38.42;20.66;100879.63;103661;280;38279;-73
2023/07/10 07:51:09;;;;;;;1.90;1.60;;;;;;;38.27;20.93;100875.09;103687;280;38243;-73
2023/07/10 07:53:48;;;;;;;2.00;1.50;;;;;;;38.34;20.58;100877.36;103690;280;39585;-72
2023/07/10 07:56:22;;;;;;;2.50;1.90;;;;;;;38.34;20.45;100871.77;103688;280;39871;-72
2023/07/10 07:58:57;;;;;;;2.30;1.60;;;;;;;38.33;20.24;100871.88;103721;279;39066;-71
2023/07/10 08:01:31;;;;;;;2.10;1.60;;;;;;;38.36;20.48;100868.48;103721;280;38443;-72
2023/07/10 08:04:05;;;;;;;1.90;1.70;;;;;;;38.58;20.75;100872.48;103108;280;879854;-73
2023/07/10 08:06:39;;;;;;;2.90;1.90;;;;;;;38.57;20.29;100877.08;103690;280;39430;-73
2023/07/10 08:09:13;;;;;;;2.70;1.70;;;;;;;38.49;20.33;100875.45;103608;280;39415;-75
2023/07/10 08:11:47;;;;;;;4.50;2.40;;;;;;;38.56;20.35;100874.32;103651;280;38458;-74
2023/07/10 08:14:22;;;;;;;2.50;1.80;;;;;;;38.68;20.36;100867.55;103701;279;38873;-73
2023/07/10 08:16:56;;;;;;;2.20;1.90;;;;;;;38.93;20.84;100867.21;103675;280;38372;-72
2023/07/10 08:19:31;;;;;;;4.20;2.10;;;;;;;39.31;19.98;100866.73;103745;280;38306;-72
2023/07/10 08:22:07;;;;;;;4.30;2.30;;;;;;;39.49;19.91;100865.54;103691;279;39439;-72
2023/07/10 08:24:41;;;;;;;9.50;2.60;;;;;;;39.67;19.41;100856.30;103737;268;38374;-74
2023/07/10 08:27:15;;;;;;;4.90;2.30;;;;;;;39.68;19.11;100861.35;103696;280;39648;-74
2023/07/10 08:29:49;;;;;;;2.30;1.90;;;;;;;39.92;19.88;100853.90;103714;280;39140;-74
2023/07/10 08:32:23;;;;;;;2.20;1.60;;;;;;;40.42;19.39;100857.05;103667;279;39994;-74
2023/07/10 08:34:57;;;;;;;2.00;1.90;;;;;;;40.84;19.43;100855.46;103701;279;39816;-74
2023/07/10 08:37:31;;;;;;;2.30;1.60;;;;;;;41.20;18.91;100859.46;103679;280;40110;-75
2023/07/10 08:40:15;;;;;;;2.90;1.70;;;;;;;41.25;18.05;100858.30;103704;280;38234;-73
2023/07/10 08:42:49;;;;;;;2.00;1.70;;;;;;;41.48;18.26;100851.27;103668;280;39642;-73
2023/07/10 08:45:34;;;;;;;1.60;1.50;;;;;;;41.72;17.96;100855.30;103701;280;38864;-72
2023/07/10 08:48:27;;;;;;;1.50;1.40;;;;;;;41.62;16.98;100854.05;103675;280;39704;-72
2023/07/10 08:51:06;;;;;;;1.60;1.40;;;;;;;41.25;16.65;100853.89;103690;280;38343;-74
2023/07/10 08:53:44;;;;;;;2.60;1.70;;;;;;;41.23;17.01;100852.72;103690;279;39002;-74
2023/07/10 08:56:27;;;;;;;2.80;1.60;;;;;;;41.44;16.94;100854.42;103646;280;39021;-71
2023/07/10 08:59:10;;;;;;;2.20;1.60;;;;;;;41.38;16.93;100855.11;103701;280;38954;-72
2023/07/10 09:01:45;;;;;;;4.10;1.40;;;;;;;41.14;16.58;100858.09;103671;280;38368;-71
2023/07/10 09:04:21;;;;;;;1.50;1.40;;;;;;;40.85;17.21;100852.23;103765;268;38259;-72
2023/07/10 09:06:57;;;;;;;1.60;1.40;;;;;;;41.08;17.75;100844.99;103685;280;39654;-71
2023/07/10 09:09:37;;;;;;;1.40;1.20;;;;;;;41.32;16.89;100840.94;103750;280;38569;-73
2023/07/10 09:12:13;;;;;;;2.00;1.50;;;;;;;41.03;16.14;100843.35;103785;280;38233;-72
2023/07/10 09:14:52;;;;;;;1.80;1.70;;;;;;;40.39;16.73;100840.11;103712;280;39261;-73
2023/07/10 09:17:54;;;;;;;2.70;1.60;;;;;;;39.98;17.37;100842.74;103726;279;39412;-72
2023/07/10 09:20:29;;;;;;;3.00;1.50;;;;;;;39.48;18.02;100837.91;103669;280;38348;-74
2023/07/10 09:23:04;;;;;;;2.20;1.50;;;;;;;39.13;17.96;100844.31;103747;280;38275;-74
2023/07/10 09:25:41;;;;;;;4.10;1.60;;;;;;;38.64;17.83;100839.16;103683;280;38679;-73
2023/07/10 09:28:15;;;;;;;2.90;1.80;;;;;;;38.06;19.12;100833.78;103565;280;39689;-73
2023/07/10 09:30:55;;;;;;;1.70;1.50;;;;;;;37.90;19.33;100823.89;103712;280;39689;-76
2023/07/10 09:33:44;;;;;;;4.60;1.70;;;;;;;37.72;19.59;100817.73;103711;280;38891;-77
2023/07/10 09:36:22;;;;;;;1.80;1.70;;;;;;;37.12;19.79;100819.18;103583;280;41278;-76
2023/07/10 09:39:01;;;;;;;3.30;1.90;;;;;;;36.67;20.00;100822.31;103503;281;39421;-77
2023/07/10 09:41:39;;;;;;;3.10;1.70;;;;;;;36.19;20.32;100818.05;103497;280;38489;-76
2023/07/10 09:44:24;;;;;;;2.60;1.60;;;;;;;35.81;21.05;100814.95;103725;280;38803;-76
2023/07/10 09:47:02;;;;;;;1.70;1.50;;;;;;;35.74;22.27;100810.40;103725;280;39470;-73
2023/07/10 09:49:46;;;;;;;2.00;1.70;;;;;;;35.72;21.57;100804.21;103600;280;38386;-74
2023/07/10 09:52:32;;;;;;;2.10;1.60;;;;;;;35.43;20.99;100805.91;103693;280;38380;-75
2023/07/10 09:55:17;;;;;;;2.60;1.70;;;;;;;35.07;22.10;100811.59;103510;280;173711;-72
2023/07/10 09:57:57;;;;;;;2.30;1.70;;;;;;;35.08;22.29;100808.61;103095;280;887288;-72
2023/07/10 10:00:33;;;;;;;2.10;1.60;;;;;;;35.25;22.97;100802.39;103834;279;38726;-72
2023/07/10 10:03:10;;;;;;;1.60;1.50;;;;;;;35.19;21.42;100797.53;103711;280;39455;-72
2023/07/10 10:05:45;;;;;;;3.80;1.60;;;;;;;34.91;20.76;100792.85;103691;280;38229;-71
2023/07/10 10:08:25;;;;;;;2.90;1.70;;;;;;;34.34;20.90;100802.61;103585;280;39575;-72
2023/07/10 10:11:09;;;;;;;2.90;1.50;;;;;;;34.07;22.21;100801.27;103740;280;38375;-78
2023/07/10 10:13:50;;;;;;;1.50;1.30;;;;;;;34.21;22.14;100800.57;103760;280;38500;-73
2023/07/10 10:16:28;;;;;;;1.40;1.30;;;;;;;34.08;21.16;100791.79;103697;269;38256;-73
2023/07/10 10:19:07;;;;;;;3.40;1.40;;;;;;;34.01;21.25;100787.08;103700;280;38260;-72
2023/07/10 10:21:43;;;;;;;2.00;1.20;;;;;;;33.94;20.44;100788.40;103699;280;39405;-71
2023/07/10 10:24:18;;;;;;;2.70;1.90;;;;;;;33.96;22.00;100781.27;103719;279;39065;-72
2023/07/10 10:27:21;;;;;;;3.10;1.70;;;;;;;34.15;22.63;100780.13;103693;279;38258;-73
2023/07/10 10:30:16;;;;;;;2.00;1.20;;;;;;;34.38;22.60;100784.52;103742;280;38829;-72
2023/07/10 10:32:55;;;;;;;2.60;1.40;;;;;;;34.48;21.31;100779.84;103697;280;39408;-72
2023/07/10 10:35:44;;;;;;;2.80;1.20;;;;;;;34.23;20.74;100781.66;103742;268;38397;-73
2023/07/10 10:38:35;;;;;;;1.50;1.40;;;;;;;34.09;20.80;100774.92;103693;280;38361;-73
2023/07/10 10:41:45;;;;;;;1.70;1.20;;;;;;;34.05;21.02;100771.18;103637;280;174089;-72
2023/07/10 10:44:45;;;;;;;9.80;1.90;;;;;;;33.83;20.22;100764.27;103613;280;38240;-73
2023/07/10 10:47:33;;;;;;;2.90;1.40;;;;;;;33.63;20.18;100767.58;103703;280;39091;-72
2023/07/10 10:50:32;;;;;;;;;;;;;;;33.29;20.37;100769.46;103637;281;38327;-74
2023/07/10 10:53:33;;;;;;;1.90;1.20;;;;;;;32.89;20.49;100766.19;103756;280;38594;-74
2023/07/10 10:56:21;;;;;;;1.40;1.30;;;;;;;32.86;21.02;100755.55;103774;280;39475;-74
2023/07/10 10:59:14;;;;;;;;;;;;;;;33.09;21.37;100752.89;103721;280;38492;-77
2023/07/10 11:01:52;;;;;;;1.40;1.20;;;;;;;33.13;20.34;100750.89;103700;280;38897;-74
2023/07/10 11:04:27;;;;;;;;;;;;;;;33.06;20.32;100750.45;103758;280;38432;-72
2023/07/10 11:07:03;;;;;;;1.60;1.00;;;;;;;33.02;20.27;100743.46;103667;280;38421;-72
2023/07/10 11:09:41;;;;;;;2.00;1.20;;;;;;;33.13;21.29;100743.46;103714;280;38799;-73
2023/07/10 11:12:19;;;;;;;1.40;1.20;;;;;;;33.28;21.22;100745.33;103678;280;39024;-72
2023/07/10 11:14:55;;;;;;;1.80;1.20;;;;;;;33.15;20.16;100733.52;103720;280;39021;-72
2023/07/10 11:17:29;;;;;;;1.20;1.10;;;;;;;33.02;20.26;100739.83;103654;268;39248;-72
2023/07/10 11:20:05;;;;;;;2.10;1.30;;;;;;;32.78;20.17;100733.26;103748;279;38519;-71
2023/07/10 11:22:42;;;;;;;2.50;1.10;;;;;;;32.62;20.10;100724.64;103653;280;38235;-71
2023/07/10 11:25:34;;;;;;;1.40;1.30;;;;;;;32.45;19.67;100715.42;103754;280;38237;-73
2023/07/10 11:28:21;;;;;;;1.90;1.10;;;;;;;32.25;20.76;100712.84;103713;280;38619;-73
2023/07/10 11:31:37;;;;;;;2.80;1.70;;;;;;;32.19;20.64;100698.08;103145;280;888712;-72
2023/07/10 11:34:54;;;;;;;7.90;1.80;;;;;;;32.25;21.33;100696.39;103743;280;38810;-72
2023/07/10 11:38:16;;;;;;;1.80;1.30;;;;;;;32.28;21.15;100692.93;103804;280;39693;-71
2023/07/10 11:40:52;;;;;;;1.20;1.10;;;;;;;32.11;21.26;100697.45;103783;280;38232;-72
2023/07/10 11:43:57;;;;;;;1.60;1.20;;;;;;;32.18;22.02;100696.19;103693;280;39386;-71
2023/07/10 11:46:35;;;;;;;1.70;1.40;;;;;;;32.21;21.84;100689.76;103676;280;38269;-74
2023/07/10 11:49:24;;;;;;;2.10;1.20;;;;;;;32.30;21.72;100695.04;103769;280;39441;-72
2023/07/10 11:52:31;;;;;;;2.90;1.80;;;;;;;32.26;21.28;100686.16;103676;280;39564;-73
2023/07/10 11:55:11;;;;;;;1.30;1.10;;;;;;;32.03;21.50;100691.27;103103;280;885438;-72
2023/07/10 11:57:46;;;;;;;1.20;1.10;;;;;;;31.89;21.37;100683.90;103591;280;38274;-72
2023/07/10 12:00:30;;;;;;;1.70;1.40;;;;;;;31.66;21.13;100681.36;103708;280;40176;-72
2023/07/10 12:03:12;;;;;;;2.10;1.20;;;;;;;31.45;21.77;100673.48;103715;279;39610;-72
2023/07/10 12:05:46;;;;;;;1.90;1.10;;;;;;;31.45;22.12;100664.49;103698;280;38312;-72
2023/07/10 12:08:23;;;;;;;1.40;1.30;;;;;;;31.57;22.68;100662.91;103576;280;38296;-73
2023/07/10 12:10:58;;;;;;;1.30;1.20;;;;;;;31.65;22.50;100663.42;103674;280;38632;-72
2023/07/10 12:13:34;;;;;;;1.50;1.10;;;;;;;31.59;21.99;100665.27;103605;280;174165;-72